Time;durP1;ratioP1;P1;durP2;ratioP2;P2;SDS_P1;SDS_P2;PMS_P1;PMS_P2;Temp;Humidity;BMP_temperature;BMP_pressure;BME280_temperature;BME280_humidity;BME280_pressure;Samples;Min_cycle;Max_cycle;Signal;HPM_P1;HPM_P2
2022/03/06 00:00:21;;;;;;;87.88;42.08;;;;;;;-8.12;74.02;100511.56;1856202;75;21036;-65
2022/03/06 00:02:49;;;;;;;100.00;46.48;;;;;;;-8.04;73.90;100519.05;1837350;75;22154;-65
2022/03/06 00:05:16;;;;;;;116.20;49.73;;;;;;;-7.99;73.76;100508.70;1849975;75;21425;-65
2022/03/06 00:07:43;;;;;;;98.87;44.00;;;;;;;-7.94;73.71;100503.41;1834265;75;21441;-66
2022/03/06 00:10:11;;;;;;;119.70;50.35;;;;;;;-7.91;73.68;100498.46;1840728;75;20930;-65
2022/03/06 00:12:38;;;;;;;108.05;49.53;;;;;;;-7.89;73.64;100504.47;1838588;75;20973;-66
2022/03/06 00:15:06;;;;;;;140.22;58.98;;;;;;;-7.83;73.68;100499.17;1839299;75;26583;-66
2022/03/06 00:17:33;;;;;;;131.05;58.02;;;;;;;-7.80;73.69;100498.03;1846271;75;20960;-65
2022/03/06 00:20:02;;;;;;;109.70;49.93;;;;;;;-7.78;73.70;100491.35;1840309;75;21056;-63
2022/03/06 00:22:28;;;;;;;100.67;48.50;;;;;;;-7.74;73.74;100494.05;1829673;75;20970;-64
2022/03/06 00:24:56;;;;;;;91.57;41.47;;;;;;;-7.70;73.75;100497.55;1795908;78;21280;-64
2022/03/06 00:27:23;;;;;;;95.30;42.80;;;;;;;-7.74;73.73;100489.38;1810983;77;21904;-64
2022/03/06 00:29:49;;;;;;;96.57;43.80;;;;;;;-7.69;73.73;100494.23;1799097;77;21448;-65
2022/03/06 00:32:16;;;;;;;80.43;42.83;;;;;;;-7.68;73.75;100494.69;1805965;77;21542;-65
2022/03/06 00:34:42;;;;;;;81.10;41.13;;;;;;;-7.66;73.82;100501.95;1804831;77;21613;-64
2022/03/06 00:37:09;;;;;;;76.80;40.57;;;;;;;-7.62;73.87;100498.72;1811837;77;21032;-64
2022/03/06 00:39:36;;;;;;;90.87;45.33;;;;;;;-7.59;73.83;100496.70;1808002;77;21465;-64
2022/03/06 00:42:03;;;;;;;87.63;45.03;;;;;;;-7.61;73.82;100487.78;1818115;77;21604;-64
2022/03/06 00:44:29;;;;;;;;;;;;;;;-7.60;73.64;100497.11;1813938;77;20985;-65
2022/03/06 00:46:56;;;;;;;91.40;42.80;;;;;;;-7.64;73.68;100500.35;1809661;77;20246;-64
2022/03/06 00:49:23;;;;;;;91.47;43.67;;;;;;;-7.67;73.69;100498.56;1765233;80;21148;-64
2022/03/06 00:51:50;;;;;;;94.27;45.47;;;;;;;-7.68;73.78;100490.88;1806683;79;21059;-65
2022/03/06 00:54:16;;;;;;;105.70;48.42;;;;;;;-7.78;73.97;100476.14;1798119;78;21417;-64
2022/03/06 00:56:43;;;;;;;110.17;50.50;;;;;;;-7.78;73.97;100476.14;1802661;78;21032;-64
2022/03/06 00:59:10;;;;;;;113.05;49.00;;;;;;;-7.64;74.01;100504.16;1803173;79;20996;-64
2022/03/06 01:01:36;;;;;;;106.87;50.08;;;;;;;-7.62;74.05;100496.18;1797852;79;20989;-64
2022/03/06 01:04:04;;;;;;;120.65;53.73;;;;;;;-7.65;74.11;100496.06;1804784;79;21042;-65
2022/03/06 01:06:30;;;;;;;147.17;65.20;;;;;;;-7.66;74.09;100491.41;1801508;78;21442;-64
2022/03/06 01:08:57;;;;;;;124.40;58.52;;;;;;;-7.67;74.10;100503.63;1803128;79;21012;-65
2022/03/06 01:11:25;;;;;;;130.12;59.40;;;;;;;-7.67;74.10;100502.37;1800717;78;21025;-65
2022/03/06 01:13:52;;;;;;;119.47;57.98;;;;;;;-7.67;74.09;100495.16;1800647;79;20941;-64
2022/03/06 01:16:19;;;;;;;116.05;57.78;;;;;;;-7.71;74.10;100497.11;1805059;78;20942;-64
2022/03/06 01:18:46;;;;;;;120.37;54.10;;;;;;;-7.71;74.17;100494.16;1838875;76;21359;-65
2022/03/06 01:21:13;;;;;;;128.38;60.33;;;;;;;-7.71;74.21;100495.84;1837979;77;20919;-64
2022/03/06 01:23:40;;;;;;;116.70;54.05;;;;;;;-7.73;74.27;100487.30;1792328;78;21044;-65
2022/03/06 01:26:06;;;;;;;120.67;56.53;;;;;;;-7.75;74.32;100483.86;1798841;79;21005;-65
2022/03/06 01:28:33;;;;;;;121.63;60.13;;;;;;;-7.75;74.38;100481.33;1798004;78;20962;-64
2022/03/06 01:30:59;;;;;;;108.25;54.18;;;;;;;-7.77;74.34;100479.12;1838540;76;21240;-65
2022/03/06 01:33:26;;;;;;;112.73;50.40;;;;;;;-7.77;74.32;100481.66;1844680;76;21360;-64
2022/03/06 01:35:53;;;;;;;123.77;58.60;;;;;;;-7.79;74.40;100482.00;1796426;78;21615;-64
2022/03/06 01:38:20;;;;;;;115.95;55.33;;;;;;;-7.81;74.41;100478.53;1798377;79;21056;-65
2022/03/06 01:40:47;;;;;;;122.77;59.30;;;;;;;-7.83;74.69;100487.77;1795576;78;20997;-65
2022/03/06 01:43:13;;;;;;;124.85;57.73;;;;;;;-7.83;74.69;100487.77;1794241;79;21458;-65
2022/03/06 01:45:40;;;;;;;102.50;50.38;;;;;;;-7.81;74.54;100481.06;1792419;79;20986;-65
2022/03/06 01:48:11;;;;;;;99.17;47.40;;;;;;;-7.80;74.53;100490.42;1794923;78;21018;-65
2022/03/06 01:50:37;;;;;;;100.90;48.23;;;;;;;-7.78;74.68;100489.67;1810252;77;21090;-65
2022/03/06 01:53:08;;;;;;;104.87;46.68;;;;;;;-7.73;74.77;100490.72;1811481;77;20906;-65
2022/03/06 01:55:39;;;;;;;95.60;43.05;;;;;;;-7.67;74.74;100490.09;1804851;77;21117;-65
2022/03/06 01:58:09;;;;;;;83.22;41.85;;;;;;;-7.64;74.71;100485.14;1835146;76;20923;-65
2022/03/06 02:00:41;;;;;;;90.60;42.55;;;;;;;-7.60;74.68;100486.97;1792904;78;21119;-65
2022/03/06 02:03:08;;;;;;;99.58;44.93;;;;;;;-7.56;74.80;100486.67;1800133;78;21029;-65
2022/03/06 02:05:35;;;;;;;105.47;48.08;;;;;;;-7.52;74.84;100483.05;1802690;78;21083;-65
2022/03/06 02:08:02;;;;;;;95.03;46.13;;;;;;;-7.49;74.87;100479.36;1803515;78;22492;-65
2022/03/06 02:10:29;;;;;;;100.45;45.17;;;;;;;-7.47;74.90;100471.41;1799356;78;21563;-65
2022/03/06 02:12:55;;;;;;;94.97;43.68;;;;;;;-7.36;75.15;100479.83;1806644;78;21070;-65
2022/03/06 02:15:22;;;;;;;99.85;44.90;;;;;;;-7.26;75.13;100467.92;1803068;78;21469;-65
2022/03/06 02:17:49;;;;;;;97.00;45.20;;;;;;;-7.21;75.18;100474.03;1796867;78;21021;-65
2022/03/06 02:20:24;;;;;;;100.97;48.65;;;;;;;-7.15;75.05;100476.78;1795134;78;21597;-65
2022/03/06 02:22:57;;;;;;;94.77;45.60;;;;;;;-7.15;75.10;100467.91;1804984;77;20993;-66
2022/03/06 02:25:29;;;;;;;95.03;46.25;;;;;;;-7.11;75.05;100468.48;1801434;78;21036;-64
2022/03/06 02:27:59;;;;;;;106.75;49.45;;;;;;;-7.09;75.05;100469.38;1803473;78;20985;-66
2022/03/06 02:30:29;;;;;;;100.95;47.90;;;;;;;-7.05;75.13;100463.63;1801667;78;21019;-65
2022/03/06 02:32:59;;;;;;;108.45;51.48;;;;;;;-7.04;75.01;100455.19;1800119;78;21196;-65
2022/03/06 02:35:27;;;;;;;105.67;50.52;;;;;;;-7.03;75.09;100466.20;1806190;77;21711;-65
2022/03/06 02:37:53;;;;;;;;;;;;;;;-7.02;75.03;100450.18;1789375;78;21044;-65
2022/03/06 02:40:21;;;;;;;110.43;53.80;;;;;;;-7.08;74.95;100455.91;1795868;78;20102;-65
2022/03/06 02:42:51;;;;;;;109.12;52.43;;;;;;;-7.06;75.15;100451.72;1807334;77;21898;-65
2022/03/06 02:45:22;;;;;;;107.25;47.98;;;;;;;-7.05;75.31;100447.13;1769328;79;21914;-65
2022/03/06 02:47:51;;;;;;;118.57;53.85;;;;;;;-6.96;75.38;100450.80;1833315;76;20940;-65
2022/03/06 02:50:22;;;;;;;94.42;47.78;;;;;;;-6.91;75.52;100450.56;1831071;78;20977;-65
2022/03/06 02:52:52;;;;;;;91.35;45.70;;;;;;;-6.81;75.47;100453.85;1831534;78;21088;-65
2022/03/06 02:55:19;;;;;;;91.78;44.70;;;;;;;-6.72;75.58;100452.92;1829881;77;20940;-65
2022/03/06 02:57:46;;;;;;;89.97;45.00;;;;;;;-6.67;75.63;100448.83;1833355;77;21454;-65
2022/03/06 03:00:15;;;;;;;;;;;;;;;-6.62;75.68;100443.50;1835378;77;22140;-65
2022/03/06 03:02:42;;;;;;;80.90;39.98;;;;;;;-6.63;75.48;100444.33;1830400;77;20106;-65
2022/03/06 03:05:11;;;;;;;79.87;39.08;;;;;;;-6.61;75.62;100454.14;1830351;77;28666;-65
2022/03/06 03:07:42;;;;;;;80.00;38.65;;;;;;;-6.60;75.58;100440.62;1830716;77;21055;-66
2022/03/06 03:10:13;;;;;;;86.15;39.18;;;;;;;-6.58;75.72;100444.08;1831381;77;21252;-65
2022/03/06 03:12:41;;;;;;;80.25;38.90;;;;;;;-6.56;75.73;100447.92;1835777;77;20913;-65
2022/03/06 03:15:10;;;;;;;86.00;37.13;;;;;;;-6.50;75.83;100440.91;1829652;77;20942;-64
2022/03/06 03:17:37;;;;;;;73.07;37.28;;;;;;;-6.48;75.81;100450.73;1832429;77;20960;-65
2022/03/06 03:20:06;;;;;;;79.87;37.28;;;;;;;-6.44;75.90;100447.46;1832912;78;21557;-65
2022/03/06 03:22:33;;;;;;;67.82;37.45;;;;;;;-6.42;75.78;100447.11;1833287;77;21909;-65
2022/03/06 03:25:00;;;;;;;74.85;38.20;;;;;;;-6.35;75.93;100450.33;1832155;77;21044;-65
2022/03/06 03:27:27;;;;;;;77.03;37.90;;;;;;;-6.32;75.90;100441.53;1832326;77;20929;-65
2022/03/06 03:29:54;;;;;;;76.72;38.05;;;;;;;-6.27;75.95;100447.63;1835068;77;21381;-66
2022/03/06 03:32:20;;;;;;;71.03;37.50;;;;;;;-6.24;76.04;100435.02;1832731;77;21070;-65
2022/03/06 03:34:47;;;;;;;73.65;37.38;;;;;;;-6.19;76.07;100441.11;1835115;77;22019;-65
2022/03/06 03:37:14;;;;;;;69.53;36.37;;;;;;;-6.14;76.10;100431.92;1829238;78;20928;-65
2022/03/06 03:39:41;;;;;;;84.75;38.23;;;;;;;-6.03;76.23;100433.95;1832286;77;21038;-65
2022/03/06 03:42:07;;;;;;;78.13;36.80;;;;;;;-5.94;76.43;100435.08;1834527;77;21482;-65
2022/03/06 03:44:34;;;;;;;74.22;37.63;;;;;;;-5.83;76.36;100425.20;1833466;77;21037;-65
2022/03/06 03:47:01;;;;;;;73.47;38.55;;;;;;;-5.80;76.24;100426.98;1828989;77;21680;-65
2022/03/06 03:49:28;;;;;;;73.07;36.57;;;;;;;-5.78;76.29;100428.75;1833925;76;20969;-65
2022/03/06 03:51:55;;;;;;;70.85;36.10;;;;;;;-5.72;76.42;100422.57;1834022;76;21697;-65
2022/03/06 03:54:22;;;;;;;67.92;34.95;;;;;;;-5.69;76.29;100427.75;1836221;77;20975;-65
2022/03/06 03:56:49;;;;;;;68.47;32.60;;;;;;;-5.66;76.40;100435.50;1833221;76;21036;-66
2022/03/06 03:59:16;;;;;;;82.40;40.90;;;;;;;-5.57;76.52;100430.19;1833864;77;21244;-65
2022/03/06 04:01:42;;;;;;;81.17;38.00;;;;;;;-5.52;76.44;100436.28;1836489;76;20968;-65
2022/03/06 04:04:09;;;;;;;77.60;38.75;;;;;;;-5.50;76.44;100429.56;1827826;77;20968;-65
2022/03/06 04:06:36;;;;;;;85.73;39.90;;;;;;;-5.47;76.58;100437.28;1799433;78;21132;-65
2022/03/06 04:09:03;;;;;;;81.30;40.10;;;;;;;-5.46;76.45;100426.27;1797241;78;20978;-64
2022/03/06 04:11:31;;;;;;;;;;;;;;;-5.43;76.63;100423.84;1807318;77;21137;-65
2022/03/06 04:13:58;;;;;;;70.72;39.88;;;;;;;-5.39;76.79;100428.19;1778278;78;20174;-65
2022/03/06 04:16:24;;;;;;;74.37;39.40;;;;;;;-5.41;76.58;100427.27;1804085;78;21032;-65
2022/03/06 04:18:51;;;;;;;73.07;34.80;;;;;;;-5.38;76.73;100427.77;1810221;78;21591;-65
2022/03/06 04:21:18;;;;;;;73.80;35.70;;;;;;;-5.33;76.78;100425.81;1807079;78;20973;-65
2022/03/06 04:23:45;;;;;;;67.43;33.73;;;;;;;-5.30;76.78;100434.80;1816532;78;21608;-65
2022/03/06 04:26:12;;;;;;;73.80;36.60;;;;;;;-5.31;76.70;100425.45;1798588;78;21220;-65
2022/03/06 04:28:39;;;;;;;69.03;33.90;;;;;;;-5.29;76.82;100417.45;1805872;78;21223;-65
2022/03/06 04:31:05;;;;;;;71.62;34.15;;;;;;;-5.24;76.95;100418.84;1815366;77;20938;-65
2022/03/06 04:33:32;;;;;;;71.77;33.90;;;;;;;-5.20;76.99;100407.52;1809489;77;21088;-65
2022/03/06 04:35:59;;;;;;;60.03;31.30;;;;;;;-5.18;76.93;100410.98;1806144;78;21443;-65
2022/03/06 04:38:25;;;;;;;57.97;28.70;;;;;;;-5.17;77.00;100411.42;1801509;78;20972;-65
2022/03/06 04:40:52;;;;;;;48.23;25.08;;;;;;;-5.17;76.88;100412.69;1804526;78;20957;-65
2022/03/06 04:43:19;;;;;;;46.98;24.57;;;;;;;-5.17;76.94;100413.96;1805668;78;21079;-65
2022/03/06 04:45:46;;;;;;;47.70;22.67;;;;;;;-5.17;77.06;100406.33;1813787;78;20962;-65
2022/03/06 04:48:12;;;;;;;39.67;20.60;;;;;;;-5.13;77.13;100402.59;1800986;78;21515;-65
2022/03/06 04:50:40;;;;;;;47.38;21.73;;;;;;;-5.13;77.14;100404.72;1800925;78;21490;-65
2022/03/06 04:53:07;;;;;;;35.23;19.00;;;;;;;-5.05;77.31;100408.75;1804216;78;21064;-65
2022/03/06 04:55:33;;;;;;;36.63;18.92;;;;;;;-5.01;77.33;100402.94;1806303;78;21053;-65
2022/03/06 04:58:00;;;;;;;36.38;18.17;;;;;;;-4.98;77.31;100403.01;1811979;77;21140;-65
2022/03/06 05:00:27;;;;;;;36.23;18.50;;;;;;;-4.93;77.36;100401.84;1814657;77;21405;-65
2022/03/06 05:02:54;;;;;;;35.48;19.23;;;;;;;-4.91;77.35;100398.51;1764611;79;20977;-65
2022/03/06 05:05:21;;;;;;;37.08;19.30;;;;;;;-4.88;77.46;100397.31;1816034;78;20989;-65
2022/03/06 05:07:47;;;;;;;35.88;19.23;;;;;;;-4.76;77.71;100395.09;1770391;79;20989;-65
2022/03/06 05:10:14;;;;;;;38.17;18.12;;;;;;;-4.70;77.57;100388.41;1815390;77;21002;-65
2022/03/06 05:12:42;;;;;;;33.83;18.50;;;;;;;-4.70;77.46;100391.84;1799334;78;21514;-65
2022/03/06 05:15:11;;;;;;;;;;;;;;;-4.74;77.31;100385.78;1807945;78;21589;-65
2022/03/06 05:17:40;;;;;;;34.83;20.77;;;;;;;-4.76;77.45;100387.45;1794551;77;20170;-65
2022/03/06 05:20:10;;;;;;;36.70;18.87;;;;;;;-4.81;77.30;100389.02;1796300;77;21001;-65
2022/03/06 05:22:38;;;;;;;38.55;17.40;;;;;;;-4.76;77.62;100390.00;1799174;77;21020;-65
2022/03/06 05:25:08;;;;;;;29.18;17.02;;;;;;;-4.67;77.62;100386.81;1763700;79;21456;-65
2022/03/06 05:27:35;;;;;;;28.23;16.17;;;;;;;-4.67;77.46;100379.17;1808667;77;21000;-65
2022/03/06 05:30:01;;;;;;;33.58;17.12;;;;;;;-4.72;77.35;100384.14;1767834;79;21544;-65
2022/03/06 05:32:28;;;;;;;35.00;16.50;;;;;;;-4.75;77.41;100384.48;1806183;77;21059;-65
2022/03/06 05:34:55;;;;;;;30.70;16.67;;;;;;;-4.86;77.21;100382.94;1764366;79;20992;-65
2022/03/06 05:37:21;;;;;;;36.33;16.90;;;;;;;-4.92;77.38;100377.70;1813714;78;21343;-65
2022/03/06 05:39:48;;;;;;;33.02;17.50;;;;;;;-5.00;77.36;100372.81;1812414;77;20940;-65
2022/03/06 05:42:16;;;;;;;36.03;19.15;;;;;;;-5.09;77.31;100378.95;1816728;78;21006;-65
2022/03/06 05:44:43;;;;;;;33.20;18.87;;;;;;;-5.11;77.58;100378.03;1809111;78;21472;-65
2022/03/06 05:47:10;;;;;;;35.55;19.32;;;;;;;-5.06;77.62;100384.12;1813224;77;20957;-65
2022/03/06 05:49:36;;;;;;;34.20;19.60;;;;;;;-5.05;77.68;100379.05;1833766;77;21642;-66
2022/03/06 05:52:05;;;;;;;34.63;18.25;;;;;;;-5.00;77.62;100387.67;1838411;77;21090;-64
2022/03/06 05:54:32;;;;;;;33.08;17.95;;;;;;;-4.95;77.41;100386.53;1842114;77;20969;-66
2022/03/06 05:56:58;;;;;;;34.55;18.60;;;;;;;-4.83;77.54;100385.56;1840141;77;21528;-66
2022/03/06 05:59:25;;;;;;;39.92;20.45;;;;;;;-4.67;77.77;100377.05;1842178;77;20987;-66
2022/03/06 06:01:52;;;;;;;35.10;18.80;;;;;;;-4.45;77.79;100388.20;1845485;77;21075;-65
2022/03/06 06:04:18;;;;;;;39.88;21.00;;;;;;;-4.28;77.75;100380.53;1841641;77;21667;-66
2022/03/06 06:06:45;;;;;;;40.45;21.10;;;;;;;-4.19;77.48;100379.03;1841761;77;20942;-66
2022/03/06 06:09:12;;;;;;;40.15;21.37;;;;;;;-4.07;77.60;100388.22;1843468;77;20956;-65
2022/03/06 06:11:39;;;;;;;49.37;23.63;;;;;;;-4.04;77.59;100383.19;1839363;77;21504;-64
2022/03/06 06:14:05;;;;;;;52.77;24.90;;;;;;;-4.02;77.59;100371.33;1844120;77;22238;-64
2022/03/06 06:16:32;;;;;;;53.10;24.80;;;;;;;-4.00;77.50;100367.55;1840388;77;20926;-64
2022/03/06 06:18:59;;;;;;;53.73;26.60;;;;;;;-3.95;77.71;100357.90;1841017;77;21012;-64
2022/03/06 06:21:26;;;;;;;34.27;19.67;;;;;;;-3.92;77.46;100365.62;1846453;77;21053;-64
2022/03/06 06:23:53;;;;;;;56.13;28.00;;;;;;;-3.82;77.70;100364.97;1841172;77;20997;-64
2022/03/06 06:26:20;;;;;;;39.00;22.70;;;;;;;-3.73;77.73;100363.44;1841898;77;21112;-65
2022/03/06 06:28:49;;;;;;;35.20;18.92;;;;;;;-3.54;77.83;100369.36;1842925;77;21025;-64
2022/03/06 06:31:15;;;;;;;37.15;20.82;;;;;;;-3.13;77.98;100366.76;1841548;77;21038;-64
2022/03/06 06:33:41;;;;;;;35.23;17.20;;;;;;;-2.59;78.11;100368.54;1843112;76;21454;-64
2022/03/06 06:36:08;;;;;;;30.37;16.95;;;;;;;-2.42;77.48;100373.06;1840197;77;21181;-64
2022/03/06 06:38:35;;;;;;;31.45;16.35;;;;;;;-2.45;77.31;100364.07;1840310;77;21101;-65
2022/03/06 06:41:02;;;;;;;26.75;15.20;;;;;;;-2.44;77.40;100368.34;1838006;76;21033;-64
2022/03/06 06:43:29;;;;;;;27.58;15.53;;;;;;;-2.50;77.33;100377.62;1839766;77;20924;-66
2022/03/06 06:46:01;;;;;;;28.65;15.63;;;;;;;-2.53;77.52;100374.17;1837561;77;20970;-66
2022/03/06 06:48:27;;;;;;;23.60;14.15;;;;;;;-2.47;77.75;100378.95;1841195;77;21041;-66
2022/03/06 06:50:54;;;;;;;22.20;13.43;;;;;;;-2.49;77.73;100376.81;1844327;77;21182;-66
2022/03/06 06:53:21;;;;;;;25.37;14.68;;;;;;;-2.53;77.73;100382.70;1841443;76;20956;-65
2022/03/06 06:55:48;;;;;;;31.60;19.93;;;;;;;-2.52;77.80;100389.55;1841867;76;20887;-65
2022/03/06 06:58:14;;;;;;;27.95;18.48;;;;;;;-2.50;77.98;100389.55;1842933;76;20909;-65
2022/03/06 07:00:41;;;;;;;32.03;19.40;;;;;;;-2.40;78.16;100386.75;1846108;76;21038;-65
2022/03/06 07:03:09;;;;;;;21.97;13.98;;;;;;;-2.31;78.32;100389.44;1845993;76;21402;-65
2022/03/06 07:05:36;;;;;;;20.32;11.33;;;;;;;-2.22;78.39;100390.84;1835494;76;20992;-65
2022/03/06 07:08:03;;;;;;;20.70;10.23;;;;;;;-2.09;78.35;100387.64;1837512;76;20963;-65
2022/03/06 07:10:30;;;;;;;15.80;10.50;;;;;;;-2.08;78.00;100391.06;1848675;76;20993;-65
2022/03/06 07:12:58;;;;;;;16.75;11.12;;;;;;;-2.08;78.03;100388.08;1846131;77;20933;-67
2022/03/06 07:15:28;;;;;;;17.00;9.63;;;;;;;-2.04;78.17;100388.58;1847602;77;21597;-65
2022/03/06 07:17:59;;;;;;;12.85;9.18;;;;;;;-1.90;78.26;100391.77;1845806;77;21052;-65
2022/03/06 07:20:26;;;;;;;13.70;8.68;;;;;;;-1.82;78.40;100383.73;1849097;77;21048;-66
2022/03/06 07:22:57;;;;;;;13.72;7.92;;;;;;;-1.66;78.67;100385.66;1849002;77;21464;-66
2022/03/06 07:25:24;;;;;;;13.22;7.78;;;;;;;-1.49;78.67;100391.42;1846799;77;21017;-65
2022/03/06 07:27:51;;;;;;;18.17;8.58;;;;;;;-1.43;78.37;100383.81;1849268;77;21214;-65
2022/03/06 07:30:48;;;;;;;15.23;7.53;;;;;;;-1.35;78.52;100383.48;1863700;75;23363;-66
2022/03/06 07:33:17;;;;;;;17.52;7.80;;;;;;;-1.36;78.23;100389.45;1844404;76;21497;-66
2022/03/06 07:35:44;;;;;;;17.50;9.10;;;;;;;-1.36;78.17;100390.31;1840632;76;21585;-66
2022/03/06 07:38:13;;;;;;;16.50;8.63;;;;;;;-1.31;78.39;100387.81;1839497;77;21041;-65
2022/03/06 07:40:41;;;;;;;21.95;12.37;;;;;;;-1.15;78.70;100389.71;1847219;75;21495;-65
2022/03/06 07:43:08;;;;;;;21.00;12.28;;;;;;;-0.99;78.54;100390.72;1844022;77;20969;-66
2022/03/06 07:45:35;;;;;;;17.67;11.68;;;;;;;-0.89;78.51;100385.27;1843197;77;20993;-66
2022/03/06 07:48:06;;;;;;;17.65;10.43;;;;;;;-0.76;78.48;100381.96;1846924;77;21117;-66
2022/03/06 07:50:32;;;;;;;15.80;9.90;;;;;;;-0.60;78.40;100388.53;1837795;77;20918;-64
2022/03/06 07:52:59;;;;;;;15.23;8.75;;;;;;;-0.48;78.30;100388.62;1842631;77;20945;-65
2022/03/06 07:55:26;;;;;;;15.53;8.25;;;;;;;-0.35;78.31;100382.75;1832037;76;20967;-65
2022/03/06 07:57:55;;;;;;;12.17;8.50;;;;;;;-0.16;78.54;100386.74;1836202;76;21609;-64
2022/03/06 08:00:25;;;;;;;20.40;12.28;;;;;;;0.14;78.77;100389.91;1835859;76;21178;-65
2022/03/06 08:02:55;;;;;;;34.67;19.57;;;;;;;0.42;78.72;100389.63;1837276;76;21582;-67
2022/03/06 08:05:21;;;;;;;29.80;15.55;;;;;;;0.47;78.05;100384.09;1843679;76;21031;-66
2022/03/06 08:07:50;;;;;;;17.10;10.93;;;;;;;0.42;77.85;100375.49;1836524;76;21044;-66
2022/03/06 08:10:19;;;;;;;20.05;10.72;;;;;;;0.47;77.93;100390.51;1835538;76;21027;-66
2022/03/06 08:12:50;;;;;;;18.60;11.10;;;;;;;0.56;77.85;100378.12;1844123;76;21030;-65
2022/03/06 08:15:17;;;;;;;12.63;8.25;;;;;;;0.63;77.78;100376.88;1837777;76;20965;-65
2022/03/06 08:17:44;;;;;;;12.35;7.67;;;;;;;0.75;77.75;100376.48;1836386;77;21032;-65
2022/03/06 08:20:12;;;;;;;9.18;5.80;;;;;;;0.91;77.84;100373.55;1835215;77;20961;-65
2022/03/06 08:22:39;;;;;;;8.50;5.50;;;;;;;0.98;77.52;100374.85;1837512;76;21002;-65
2022/03/06 08:25:09;;;;;;;7.78;5.58;;;;;;;1.03;77.49;100374.41;1838542;76;21425;-65
2022/03/06 08:27:35;;;;;;;15.38;8.60;;;;;;;1.14;77.50;100369.72;1843786;76;20952;-65
2022/03/06 08:30:07;;;;;;;10.82;6.45;;;;;;;1.37;78.22;100364.59;1839006;76;20985;-66
2022/03/06 08:32:36;;;;;;;10.68;4.65;;;;;;;1.53;77.77;100377.89;1774232;78;21540;-65
2022/03/06 08:35:06;;;;;;;7.97;4.65;;;;;;;1.62;77.74;100369.31;1797404;78;21034;-65
2022/03/06 08:37:34;;;;;;;7.75;4.10;;;;;;;1.69;77.75;100374.91;1775953;80;21075;-69
2022/03/06 08:40:03;;;;;;;7.28;4.47;;;;;;;1.74;77.55;100375.77;1766370;80;20955;-66
2022/03/06 08:42:30;;;;;;;9.93;4.87;;;;;;;1.74;77.61;100375.77;1776963;79;20953;-65
2022/03/06 08:44:59;;;;;;;6.23;4.37;;;;;;;1.74;77.35;100377.05;1762760;78;20993;-65
2022/03/06 08:47:26;;;;;;;6.33;3.55;;;;;;;1.67;77.24;100379.19;1784055;80;21051;-65
2022/03/06 08:50:12;;;;;;;3.90;2.70;;;;;;;1.70;77.58;100375.31;1772058;78;21025;-65
2022/03/06 08:52:40;;;;;;;5.87;3.40;;;;;;;1.75;77.39;100374.89;1724727;81;28278;-65
2022/03/06 08:55:09;;;;;;;5.00;2.72;;;;;;;1.82;77.43;100366.31;1724248;81;21542;-65
2022/03/06 08:57:38;;;;;;;3.25;2.22;;;;;;;1.83;77.06;100364.16;1725702;81;21030;-65
2022/03/06 09:00:11;;;;;;;6.08;2.50;;;;;;;1.74;76.82;100366.75;1693403;83;21117;-65
2022/03/06 09:02:37;;;;;;;10.08;4.47;;;;;;;1.74;77.03;100361.60;1688247;83;21312;-65
2022/03/06 09:05:06;;;;;;;5.90;3.13;;;;;;;1.75;76.83;100357.72;1701585;83;21005;-65
2022/03/06 09:07:33;;;;;;;6.80;3.55;;;;;;;1.82;77.10;100356.02;1709395;82;21645;-66
2022/03/06 09:10:01;;;;;;;4.12;2.62;;;;;;;1.91;76.93;100351.28;1681645;83;21581;-66
2022/03/06 09:12:28;;;;;;;4.95;2.40;;;;;;;1.91;76.47;100350.84;1697558;81;21104;-66
2022/03/06 09:14:55;;;;;;;6.83;3.33;;;;;;;1.91;76.27;100353.41;1687986;83;21994;-66
2022/03/06 09:17:22;;;;;;;7.03;3.98;;;;;;;2.05;77.05;100348.67;1726016;81;21247;-66
2022/03/06 09:19:49;;;;;;;5.67;3.05;;;;;;;2.18;76.93;100351.62;1675085;83;21000;-66
2022/03/06 09:22:16;;;;;;;6.12;2.98;;;;;;;2.33;77.09;100352.02;1685249;83;21076;-66
2022/03/06 09:24:43;;;;;;;5.05;3.00;;;;;;;2.48;76.89;100358.39;1722733;83;21029;-65
2022/03/06 09:27:11;;;;;;;4.07;2.17;;;;;;;2.49;76.62;100356.66;1723990;83;21076;-65
2022/03/06 09:29:40;;;;;;;5.28;2.42;;;;;;;2.56;76.69;100349.34;1734217;81;21613;-65
2022/03/06 09:32:07;;;;;;;3.80;2.50;;;;;;;2.62;76.74;100351.88;1721076;81;21536;-66
2022/03/06 09:34:59;;;;;;;3.65;2.20;;;;;;;2.63;76.18;100354.88;1724161;81;21003;-66
2022/03/06 09:37:26;;;;;;;4.20;2.37;;;;;;;2.63;76.27;100362.61;1677464;83;21021;-66
2022/03/06 09:39:54;;;;;;;4.92;2.40;;;;;;;2.52;75.77;100358.82;1654984;84;23176;-67
2022/03/06 09:42:22;;;;;;;4.65;2.90;;;;;;;2.40;75.70;100364.86;1676236;83;21018;-66
2022/03/06 09:44:50;;;;;;;3.92;2.67;;;;;;;2.40;76.10;100360.98;1670054;84;21093;-66
2022/03/06 09:47:17;;;;;;;3.67;2.30;;;;;;;2.48;76.35;100357.53;1692536;83;21677;-65
2022/03/06 09:49:45;;;;;;;;;;;;;;;2.50;75.88;100358.40;1661113;86;21005;-64
2022/03/06 09:52:12;;;;;;;2.50;2.10;;;;;;;2.43;75.39;100350.66;1652962;86;21473;-64
2022/03/06 09:54:40;;;;;;;5.72;2.50;;;;;;;2.41;75.64;100349.84;1659104;85;20989;-65
2022/03/06 09:57:07;;;;;;;;;;;;;;;2.48;75.91;100344.66;1652874;84;21599;-66
2022/03/06 09:59:34;;;;;;;;;;;;;;;2.59;75.76;100337.73;1677337;84;20526;-66
2022/03/06 10:02:06;;;;;;;6.10;3.35;;;;;;;2.58;75.61;100338.60;1658199;84;20102;-66
2022/03/06 10:04:35;;;;;;;5.78;2.52;;;;;;;2.58;75.57;100343.76;1665914;84;21084;-66
2022/03/06 10:07:10;;;;;;;4.28;2.22;;;;;;;2.61;75.40;100339.88;1637116;85;20977;-65
2022/03/06 10:09:54;;;;;;;4.50;2.65;;;;;;;2.52;75.09;100343.76;1661103;85;21641;-65
2022/03/06 10:12:31;;;;;;;3.98;3.10;;;;;;;2.60;75.56;100342.00;1660476;85;21504;-65
2022/03/06 10:15:01;;;;;;;6.55;2.95;;;;;;;2.81;75.63;100347.50;1664704;85;20994;-64
2022/03/06 10:17:31;;;;;;;6.35;3.02;;;;;;;2.97;75.51;100339.22;1668345;85;21170;-65
2022/03/06 10:20:09;;;;;;;4.85;3.22;;;;;;;2.97;75.22;100343.97;1665069;84;21053;-64
2022/03/06 10:22:41;;;;;;;4.67;3.00;;;;;;;2.94;74.82;100328.92;1661498;84;21602;-64
2022/03/06 10:25:16;;;;;;;4.00;2.50;;;;;;;2.91;74.67;100328.09;1664186;85;21025;-65
2022/03/06 10:27:57;;;;;;;5.28;2.87;;;;;;;3.01;75.04;100330.61;1662037;85;21590;-64
2022/03/06 10:30:37;;;;;;;6.10;2.52;;;;;;;3.09;74.75;100335.28;1663455;84;21104;-66
2022/03/06 10:33:10;;;;;;;4.75;3.10;;;;;;;3.16;74.54;100333.06;1666019;84;21060;-66
2022/03/06 10:35:43;;;;;;;4.05;2.87;;;;;;;3.19;74.44;100336.91;1664087;84;21160;-66
2022/03/06 10:38:32;;;;;;;7.22;3.30;;;;;;;3.27;74.46;100337.72;1662261;85;20989;-66
2022/03/06 10:41:02;;;;;;;5.62;2.70;;;;;;;3.29;74.39;100336.42;1642594;84;22309;-64
2022/03/06 10:43:34;;;;;;;4.60;2.45;;;;;;;3.42;74.54;100339.75;1649941;86;21114;-69
2022/03/06 10:46:36;;;;;;;5.87;2.52;;;;;;;3.40;73.93;100335.05;1645527;85;21057;-65
2022/03/06 10:49:12;;;;;;;5.92;3.25;;;;;;;3.28;73.67;100335.58;1745378;80;21013;-67
2022/03/06 10:51:44;;;;;;;6.30;3.22;;;;;;;3.24;74.08;100328.70;1737620;80;20907;-66
2022/03/06 10:54:17;;;;;;;5.17;2.52;;;;;;;3.42;74.38;100330.71;1716682;82;21026;-65
2022/03/06 10:56:53;;;;;;;3.45;2.17;;;;;;;3.40;74.04;100318.27;1743439;81;21083;-66
2022/03/06 10:59:27;;;;;;;3.98;2.67;;;;;;;3.37;73.95;100321.73;1737634;80;21636;-66
2022/03/06 11:01:56;;;;;;;3.58;2.60;;;;;;;3.30;73.91;100320.91;1708908;82;21057;-66
2022/03/06 11:04:24;;;;;;;6.95;2.98;;;;;;;3.27;73.98;100315.77;1714535;82;20961;-67
2022/03/06 11:06:52;;;;;;;4.67;2.85;;;;;;;3.23;73.75;100321.84;1705973;81;21048;-65
2022/03/06 11:09:20;;;;;;;8.70;3.30;;;;;;;3.26;73.74;100324.40;1745243;81;21068;-66
2022/03/06 11:11:51;;;;;;;4.62;3.10;;;;;;;3.13;73.33;100325.34;1740722;81;21343;-65
2022/03/06 11:14:18;;;;;;;5.65;3.60;;;;;;;3.01;73.18;100325.45;1743899;80;21060;-66
2022/03/06 11:16:45;;;;;;;;;;;;;;;2.90;73.41;100326.36;1746059;81;21089;-66
2022/03/06 11:19:12;;;;;;;6.33;3.77;;;;;;;2.82;73.09;100330.70;1737275;80;20169;-67
2022/03/06 11:21:42;;;;;;;8.10;3.27;;;;;;;2.65;73.09;100326.09;1746209;80;21253;-67